Time;durP1;ratioP1;P1;durP2;ratioP2;P2;SDS_P1;SDS_P2;PMS_P1;PMS_P2;Temp;Humidity;BMP_temperature;BMP_pressure;BME280_temperature;BME280_humidity;BME280_pressure;Samples;Min_cycle;Max_cycle;Signal;HPM_P1;HPM_P2
2023/04/05 00:01:54;;;;;;;3.38;2.13;;;;;;;;;;5015027;28;20030;-63
2023/04/05 00:04:22;;;;;;;8.45;2.35;;;;;;;;;;5021878;28;20032;-65
2023/04/05 00:06:52;;;;;;;10.45;2.63;;;;;;;;;;5033930;28;20137;-64
2023/04/05 00:09:20;;;;;;;4.53;2.47;;;;;;;;;;5016882;28;20041;-63
2023/04/05 00:11:46;;;;;;;4.53;2.15;;;;;;;;;;5028913;28;20112;-64
2023/04/05 00:14:13;;;;;;;5.10;2.90;;;;;;;;;;5027861;28;20033;-65
2023/04/05 00:16:40;;;;;;;5.22;2.58;;;;;;;;;;5009067;28;20495;-64
2023/04/05 00:19:06;;;;;;;3.97;2.30;;;;;;;;;;5011625;28;20014;-64
2023/04/05 00:21:33;;;;;;;8.73;3.03;;;;;;;;;;5013945;28;20385;-64
2023/04/05 00:24:00;;;;;;;3.72;2.65;;;;;;;;;;5014116;28;20072;-64
2023/04/05 00:26:27;;;;;;;9.23;3.03;;;;;;;;;;5013913;28;20026;-64
2023/04/05 00:28:53;;;;;;;5.18;3.05;;;;;;;;;;5013835;28;20382;-63
2023/04/05 00:31:20;;;;;;;9.45;3.70;;;;;;;;;;5011062;28;20113;-64
2023/04/05 00:33:47;;;;;;;5.20;2.83;;;;;;;;;;5008875;28;20096;-64
2023/04/05 00:36:17;;;;;;;4.15;3.05;;;;;;;;;;5008757;28;20473;-64
2023/04/05 00:38:45;;;;;;;4.63;2.95;;;;;;;;;;5008870;28;20022;-64
2023/04/05 00:41:12;;;;;;;6.38;4.03;;;;;;;;;;5010656;28;20038;-64
2023/04/05 00:43:39;;;;;;;6.15;3.78;;;;;;;;;;5013592;28;20022;-63
2023/04/05 00:46:07;;;;;;;8.63;4.25;;;;;;;;;;5013618;28;20022;-64
2023/04/05 00:48:34;;;;;;;6.03;3.30;;;;;;;;;;5013411;28;20061;-64
2023/04/05 00:51:01;;;;;;;12.40;3.85;;;;;;;;;;5013424;28;20030;-64
2023/04/05 00:53:28;;;;;;;4.65;2.88;;;;;;;;;;5011289;28;20088;-64
2023/04/05 00:55:55;;;;;;;7.05;3.35;;;;;;;;;;5008217;28;20423;-62
2023/04/05 00:58:23;;;;;;;7.32;3.92;;;;;;;;;;5008398;28;20389;-63
2023/04/05 01:00:58;;;;;;;6.05;3.67;;;;;;;;;;5008173;28;20061;-63
2023/04/05 01:03:27;;;;;;;7.03;3.80;;;;;;;;;;5009797;28;20026;-63
2023/04/05 01:06:00;;;;;;;4.78;3.42;;;;;;;;;;5013221;28;20096;-63
2023/04/05 01:08:39;;;;;;;5.13;2.88;;;;;;;;;;5013407;28;20072;-63
2023/04/05 01:11:06;;;;;;;6.28;3.40;;;;;;;;;;5013132;28;20036;-63
2023/04/05 01:13:33;;;;;;;4.20;3.33;;;;;;;;;;5013184;28;20022;-63
2023/04/05 01:16:00;;;;;;;8.40;3.88;;;;;;;;;;5011467;28;20029;-63
2023/04/05 01:18:29;;;;;;;4.45;3.10;;;;;;;;;;5007906;28;20021;-63
2023/04/05 01:21:02;;;;;;;15.30;4.07;;;;;;;;;;5007953;28;20061;-63
2023/04/05 01:23:37;;;;;;;6.25;3.60;;;;;;;;;;5007501;28;20033;-63
2023/04/05 01:26:22;;;;;;;11.33;3.83;;;;;;;;;;5009480;28;20072;-64
2023/04/05 01:28:51;;;;;;;7.45;4.15;;;;;;;;;;5012778;28;20034;-63
2023/04/05 01:31:32;;;;;;;6.32;2.92;;;;;;;;;;5013011;28;20034;-63
2023/04/05 01:34:13;;;;;;;4.17;2.63;;;;;;;;;;5012826;28;20033;-63
2023/04/05 01:36:41;;;;;;;5.90;3.93;;;;;;;;;;5012856;28;20032;-63
2023/04/05 01:39:09;;;;;;;6.40;3.50;;;;;;;;;;5009501;28;20030;-62
2023/04/05 01:41:35;;;;;;;17.40;4.00;;;;;;;;;;5007792;28;20392;-62
2023/04/05 01:44:02;;;;;;;6.90;3.47;;;;;;;;;;5007761;28;20105;-64
2023/04/05 01:46:29;;;;;;;7.83;3.37;;;;;;;;;;5007871;28;20026;-64
2023/04/05 01:48:56;;;;;;;5.87;3.17;;;;;;;;;;5009811;28;20037;-63
2023/04/05 01:51:23;;;;;;;8.70;3.23;;;;;;;;;;5012579;28;20036;-63
2023/04/05 01:53:49;;;;;;;7.07;3.13;;;;;;;;;;5012730;28;20033;-63
2023/04/05 01:56:16;;;;;;;8.27;3.80;;;;;;;;;;5012623;28;20372;-63
2023/04/05 01:58:43;;;;;;;5.83;4.13;;;;;;;;;;5012653;28;20030;-63
2023/04/05 02:01:09;;;;;;;5.77;3.73;;;;;;;;;;5009967;28;20018;-64
2023/04/05 02:03:36;;;;;;;18.17;3.73;;;;;;;;;;5007672;28;20030;-63
2023/04/05 02:06:03;;;;;;;12.03;3.97;;;;;;;;;;5007298;28;20469;-64
2023/04/05 02:08:30;;;;;;;5.97;3.20;;;;;;;;;;5007508;28;20034;-63
2023/04/05 02:10:57;;;;;;;4.30;3.17;;;;;;;;;;5008840;28;20049;-63
2023/04/05 02:13:25;;;;;;;8.30;4.23;;;;;;;;;;5012042;28;20037;-63
2023/04/05 02:15:51;;;;;;;4.90;3.80;;;;;;;;;;5012796;28;20030;-62
2023/04/05 02:18:21;;;;;;;14.17;3.97;;;;;;;;;;5012525;28;20025;-63
2023/04/05 02:20:51;;;;;;;5.70;3.57;;;;;;;;;;5012429;28;20029;-62
2023/04/05 02:23:19;;;;;;;6.27;3.10;;;;;;;;;;5010637;28;20033;-65
2023/04/05 02:25:46;;;;;;;7.40;3.33;;;;;;;;;;5007332;28;20022;-63
2023/04/05 02:28:13;;;;;;;6.73;4.43;;;;;;;;;;5007224;28;20034;-63
2023/04/05 02:30:39;;;;;;;6.40;3.27;;;;;;;;;;5006838;28;20034;-63
2023/04/05 02:33:08;;;;;;;4.43;3.33;;;;;;;;;;5007643;28;20030;-64
2023/04/05 02:35:35;;;;;;;3.77;3.10;;;;;;;;;;5012963;28;20092;-64
2023/04/05 02:38:03;;;;;;;5.37;3.70;;;;;;;;;;5016196;28;20029;-63
2023/04/05 02:40:30;;;;;;;7.17;3.67;;;;;;;;;;5016095;28;20377;-63
2023/04/05 02:42:57;;;;;;;5.63;3.57;;;;;;;;;;5015977;28;20048;-64
2023/04/05 02:45:26;;;;;;;5.23;3.60;;;;;;;;;;5015167;28;20029;-64
2023/04/05 02:47:54;;;;;;;4.03;2.87;;;;;;;;;;5010583;28;20056;-62
2023/04/05 02:50:22;;;;;;;4.87;3.47;;;;;;;;;;5010903;28;20377;-64
2023/04/05 02:52:49;;;;;;;4.40;3.33;;;;;;;;;;5010667;28;20333;-65
2023/04/05 02:55:16;;;;;;;4.53;3.10;;;;;;;;;;5010733;28;20057;-63
2023/04/05 02:57:44;;;;;;;7.97;3.60;;;;;;;;;;5015779;28;20022;-62
2023/04/05 03:00:12;;;;;;;4.97;3.33;;;;;;;;;;5015560;28;20037;-62
2023/04/05 03:02:39;;;;;;;5.37;3.20;;;;;;;;;;5015653;28;20104;-62
2023/04/05 03:05:06;;;;;;;6.57;3.77;;;;;;;;;;5015646;28;20456;-64
2023/04/05 03:07:34;;;;;;;8.17;3.90;;;;;;;;;;5015279;28;20037;-64
2023/04/05 03:10:01;;;;;;;6.63;4.00;;;;;;;;;;5010365;28;20061;-64
2023/04/05 03:12:28;;;;;;;5.87;3.47;;;;;;;;;;5010668;28;20018;-64
2023/04/05 03:14:55;;;;;;;3.63;3.20;;;;;;;;;;5010686;28;20050;-65
2023/04/05 03:17:22;;;;;;;8.73;4.00;;;;;;;;;;5010128;28;20084;-65
2023/04/05 03:19:49;;;;;;;6.37;3.80;;;;;;;;;;5014352;28;20022;-64
2023/04/05 03:22:16;;;;;;;4.60;3.17;;;;;;;;;;5015214;28;20531;-64
2023/04/05 03:24:43;;;;;;;5.23;3.20;;;;;;;;;;5015326;28;20435;-61
2023/04/05 03:27:10;;;;;;;6.90;3.50;;;;;;;;;;5014821;28;20034;-62
2023/04/05 03:29:37;;;;;;;5.03;3.57;;;;;;;;;;5015102;28;20029;-64
2023/04/05 03:32:03;;;;;;;6.20;3.80;;;;;;;;;;5011058;28;20125;-63
2023/04/05 03:34:30;;;;;;;5.13;3.40;;;;;;;;;;5010156;28;20375;-62
2023/04/05 03:36:57;;;;;;;7.33;3.90;;;;;;;;;;5009801;28;20026;-62
2023/04/05 03:39:26;;;;;;;5.23;3.57;;;;;;;;;;5009990;28;20054;-62
2023/04/05 03:41:53;;;;;;;3.97;3.07;;;;;;;;;;5013104;28;20033;-62
2023/04/05 03:44:19;;;;;;;4.23;3.10;;;;;;;;;;5014985;28;20022;-64
2023/04/05 03:46:46;;;;;;;8.80;2.93;;;;;;;;;;5014062;28;20054;-64
2023/04/05 03:49:13;;;;;;;5.77;3.43;;;;;;;;;;5014697;28;20045;-63
2023/04/05 03:51:40;;;;;;;12.17;3.97;;;;;;;;;;5014775;28;20132;-63
2023/04/05 03:54:06;;;;;;;4.47;3.33;;;;;;;;;;5011447;28;20481;-63
2023/04/05 03:56:33;;;;;;;7.60;4.33;;;;;;;;;;5009889;28;20056;-63
2023/04/05 03:59:00;;;;;;;7.57;3.93;;;;;;;;;;5009567;28;20418;-62
2023/04/05 04:01:26;;;;;;;8.03;4.47;;;;;;;;;;5009711;28;20029;-64
2023/04/05 04:03:53;;;;;;;5.80;3.97;;;;;;;;;;5011662;28;20108;-61
2023/04/05 04:06:20;;;;;;;13.13;4.40;;;;;;;;;;5013950;28;20029;-61
2023/04/05 04:08:46;;;;;;;6.00;4.40;;;;;;;;;;5014325;28;20034;-62
2023/04/05 04:11:13;;;;;;;4.73;3.43;;;;;;;;;;5014313;28;20045;-62
2023/04/05 04:13:40;;;;;;;15.27;3.97;;;;;;;;;;5014380;28;20040;-64
2023/04/05 04:16:06;;;;;;;4.57;3.33;;;;;;;;;;5012566;28;20056;-64
2023/04/05 04:18:33;;;;;;;9.00;4.97;;;;;;;;;;5009200;28;20033;-63
2023/04/05 04:21:05;;;;;;;4.00;3.10;;;;;;;;;;5009295;28;20026;-64
2023/04/05 04:23:33;;;;;;;7.77;4.17;;;;;;;;;;5009039;28;20022;-64
2023/04/05 04:26:00;;;;;;;5.17;4.00;;;;;;;;;;5010295;28;20026;-63
2023/04/05 04:28:27;;;;;;;8.33;3.40;;;;;;;;;;5014606;28;20048;-62
2023/04/05 04:30:54;;;;;;;3.73;2.93;;;;;;;;;;5021249;28;20101;-63
2023/04/05 04:33:21;;;;;;;6.80;3.27;;;;;;;;;;5031999;28;20087;-62
2023/04/05 04:35:47;;;;;;;6.87;3.70;;;;;;;;;;5031486;28;20083;-63
2023/04/05 04:38:24;;;;;;;7.97;4.10;;;;;;;;;;5031269;28;20476;-62
2023/04/05 04:40:52;;;;;;;4.47;3.37;;;;;;;;;;5008446;28;20112;-63
2023/04/05 04:43:26;;;;;;;5.93;3.47;;;;;;;;;;5019522;28;20392;-63
2023/04/05 04:45:55;;;;;;;9.13;4.50;;;;;;;;;;5025232;28;20487;-62
2023/04/05 04:48:22;;;;;;;6.50;3.80;;;;;;;;;;5029863;28;20037;-63
2023/04/05 04:50:51;;;;;;;4.63;3.50;;;;;;;;;;5016170;28;20148;-63
2023/04/05 04:53:18;;;;;;;4.77;3.13;;;;;;;;;;5017649;28;20388;-62
2023/04/05 04:55:48;;;;;;;9.60;2.77;;;;;;;;;;5033443;28;20021;-63
2023/04/05 04:58:15;;;;;;;7.10;4.17;;;;;;;;;;5032216;28;20025;-63
2023/04/05 05:00:43;;;;;;;5.83;4.13;;;;;;;;;;5031889;28;20074;-63
2023/04/05 05:03:13;;;;;;;10.77;3.73;;;;;;;;;;5027947;28;20041;-64
2023/04/05 05:05:46;;;;;;;5.97;3.60;;;;;;;;;;5028430;28;20357;-64
2023/04/05 05:08:13;;;;;;;6.00;4.17;;;;;;;;;;5023013;28;20116;-63
2023/04/05 05:10:40;;;;;;;10.67;4.20;;;;;;;;;;5028898;28;20113;-64
2023/04/05 05:13:07;;;;;;;14.83;3.70;;;;;;;;;;5033085;28;20026;-63
2023/04/05 05:15:34;;;;;;;6.17;3.70;;;;;;;;;;5021151;28;20080;-62
2023/04/05 05:18:02;;;;;;;6.33;4.13;;;;;;;;;;5015923;28;20021;-63
2023/04/05 05:20:28;;;;;;;6.37;3.83;;;;;;;;;;5032549;28;20033;-64
2023/04/05 05:22:55;;;;;;;7.33;3.83;;;;;;;;;;5032458;28;20350;-62
2023/04/05 05:25:22;;;;;;;12.73;5.20;;;;;;;;;;5028080;28;20036;-63
2023/04/05 05:27:50;;;;;;;11.80;4.03;;;;;;;;;;5026971;28;20033;-64
2023/04/05 05:30:17;;;;;;;4.93;3.60;;;;;;;;;;5008230;28;20033;-64
2023/04/05 05:32:43;;;;;;;5.97;3.73;;;;;;;;;;5008044;28;20105;-64
2023/04/05 05:35:10;;;;;;;5.30;3.27;;;;;;;;;;5016539;28;20036;-64
2023/04/05 05:37:37;;;;;;;12.33;4.07;;;;;;;;;;5012893;28;20104;-64
2023/04/05 05:40:04;;;;;;;13.03;4.47;;;;;;;;;;5013096;28;20377;-64
2023/04/05 05:42:33;;;;;;;4.83;3.87;;;;;;;;;;5012916;28;20362;-63
2023/04/05 05:45:04;;;;;;;7.77;3.43;;;;;;;;;;5025025;28;20026;-64
2023/04/05 05:47:31;;;;;;;5.17;3.93;;;;;;;;;;5015590;28;20021;-64
2023/04/05 05:49:58;;;;;;;8.77;3.93;;;;;;;;;;5007895;28;20053;-63
2023/04/05 05:52:24;;;;;;;4.77;3.60;;;;;;;;;;5007546;28;20022;-64
2023/04/05 05:54:51;;;;;;;8.80;4.57;;;;;;;;;;5007732;28;20018;-63
2023/04/05 05:57:18;;;;;;;4.73;3.27;;;;;;;;;;5011701;28;20033;-64
2023/04/05 05:59:45;;;;;;;5.73;3.53;;;;;;;;;;5029409;28;20032;-63
2023/04/05 06:02:12;;;;;;;9.17;4.30;;;;;;;;;;5032513;28;20045;-63
2023/04/05 06:04:39;;;;;;;5.10;2.60;;;;;;;;;;5031788;28;20052;-64
2023/04/05 06:07:06;;;;;;;4.30;3.23;;;;;;;;;;5032158;28;20053;-64
2023/04/05 06:09:34;;;;;;;5.33;3.47;;;;;;;;;;5028926;28;20045;-64
2023/04/05 06:12:01;;;;;;;4.97;2.77;;;;;;;;;;5033096;28;20029;-65
2023/04/05 06:14:30;;;;;;;3.10;2.30;;;;;;;;;;5033669;28;20140;-64
2023/04/05 06:16:57;;;;;;;7.50;3.47;;;;;;;;;;5033394;28;20048;-64
2023/04/05 06:19:24;;;;;;;3.73;2.53;;;;;;;;;;5036735;28;20159;-64
2023/04/05 06:21:51;;;;;;;9.27;3.77;;;;;;;;;;5038755;28;20484;-64
2023/04/05 06:24:17;;;;;;;8.63;2.93;;;;;;;;;;5038652;28;20080;-63
2023/04/05 06:26:44;;;;;;;3.73;2.77;;;;;;;;;;5038717;28;20030;-64
2023/04/05 06:29:11;;;;;;;7.57;3.43;;;;;;;;;;5028780;28;20116;-64
2023/04/05 06:31:37;;;;;;;2.57;1.90;;;;;;;;;;5015269;28;20378;-64
2023/04/05 06:34:04;;;;;;;3.50;2.57;;;;;;;;;;5013571;28;20030;-64
2023/04/05 06:36:32;;;;;;;3.80;2.47;;;;;;;;;;5013631;28;20018;-63
2023/04/05 06:38:59;;;;;;;2.10;1.70;;;;;;;;;;5013475;28;20463;-64
2023/04/05 06:41:26;;;;;;;3.17;2.77;;;;;;;;;;5016085;28;20045;-64
2023/04/05 06:43:53;;;;;;;9.00;3.23;;;;;;;;;;5018749;28;20041;-64
2023/04/05 06:46:19;;;;;;;8.53;3.03;;;;;;;;;;5018648;28;20120;-64
2023/04/05 06:48:47;;;;;;;11.10;3.90;;;;;;;;;;5018297;28;20480;-64
2023/04/05 06:51:17;;;;;;;3.83;2.60;;;;;;;;;;5018553;28;20393;-64
2023/04/05 06:53:43;;;;;;;10.70;3.70;;;;;;;;;;5015736;28;20030;-64
2023/04/05 06:56:10;;;;;;;6.23;3.40;;;;;;;;;;5013488;28;20026;-63
2023/04/05 06:58:37;;;;;;;3.93;3.27;;;;;;;;;;5013516;28;20030;-64
2023/04/05 07:01:05;;;;;;;3.90;3.13;;;;;;;;;;5013324;28;20022;-64
2023/04/05 07:03:32;;;;;;;5.40;2.67;;;;;;;;;;5015340;28;20101;-63
2023/04/05 07:05:59;;;;;;;2.50;1.93;;;;;;;;;;5018391;28;20420;-64
2023/04/05 07:08:27;;;;;;;5.20;3.40;;;;;;;;;;5000783;28;20485;-64
2023/04/05 07:10:54;;;;;;;4.20;2.87;;;;;;;;;;5018387;28;20041;-63
2023/04/05 07:13:21;;;;;;;10.83;2.77;;;;;;;;;;5018531;28;20429;-63
2023/04/05 07:15:48;;;;;;;6.63;3.60;;;;;;;;;;5016000;28;20024;-64
2023/04/05 07:18:15;;;;;;;3.60;2.60;;;;;;;;;;5013316;28;20022;-63
2023/04/05 07:20:41;;;;;;;3.93;3.03;;;;;;;;;;5012628;28;20109;-63
2023/04/05 07:23:08;;;;;;;5.40;3.47;;;;;;;;;;5008962;28;20040;-64
2023/04/05 07:25:35;;;;;;;6.23;4.37;;;;;;;;;;5011301;28;20101;-64
2023/04/05 07:28:01;;;;;;;6.97;4.00;;;;;;;;;;5015172;28;20058;-63
2023/04/05 07:30:28;;;;;;;5.67;2.73;;;;;;;;;;5014891;28;20026;-64
2023/04/05 07:32:55;;;;;;;5.20;3.77;;;;;;;;;;5015190;28;20036;-63
2023/04/05 07:35:22;;;;;;;3.23;2.50;;;;;;;;;;5015275;28;20453;-64
2023/04/05 07:37:48;;;;;;;4.23;3.07;;;;;;;;;;5013725;28;20461;-63
2023/04/05 07:40:15;;;;;;;4.07;2.83;;;;;;;;;;5009450;28;20061;-63
2023/04/05 07:42:42;;;;;;;4.07;3.30;;;;;;;;;;5009337;28;20055;-64
2023/04/05 07:45:09;;;;;;;4.30;3.13;;;;;;;;;;5009623;28;20022;-63
2023/04/05 07:47:36;;;;;;;5.10;3.13;;;;;;;;;;5009933;28;20036;-63
2023/04/05 07:50:02;;;;;;;4.07;2.33;;;;;;;;;;5014817;28;20359;-63
2023/04/05 07:52:29;;;;;;;5.73;3.83;;;;;;;;;;5014711;28;20033;-64
2023/04/05 07:54:56;;;;;;;7.13;4.07;;;;;;;;;;5014857;28;20021;-63
2023/04/05 07:57:23;;;;;;;4.90;3.30;;;;;;;;;;5014465;28;20481;-64
2023/04/05 07:59:51;;;;;;;4.50;2.57;;;;;;;;;;5013649;28;20474;-63
2023/04/05 08:02:18;;;;;;;16.37;2.67;;;;;;;;;;5009154;28;20034;-63
2023/04/05 08:04:44;;;;;;;7.10;3.27;;;;;;;;;;5016370;28;20033;-63
2023/04/05 08:07:11;;;;;;;6.33;3.27;;;;;;;;;;5028951;28;20018;-63
2023/04/05 08:09:38;;;;;;;8.60;3.53;;;;;;;;;;5028789;28;20033;-64
2023/04/05 08:12:05;;;;;;;3.10;2.43;;;;;;;;;;5033875;28;20417;-64
2023/04/05 08:14:32;;;;;;;3.93;2.27;;;;;;;;;;5033534;28;20116;-64
2023/04/05 08:16:58;;;;;;;4.87;3.23;;;;;;;;;;5033914;28;20026;-63
2023/04/05 08:19:25;;;;;;;7.47;2.53;;;;;;;;;;5033839;28;20025;-63
2023/04/05 08:21:53;;;;;;;6.07;3.30;;;;;;;;;;5034029;28;20425;-63
2023/04/05 08:24:19;;;;;;;3.77;3.07;;;;;;;;;;5028284;28;20484;-63
2023/04/05 08:26:46;;;;;;;2.87;1.93;;;;;;;;;;5028674;28;20041;-64
2023/04/05 08:29:13;;;;;;;3.67;3.03;;;;;;;;;;5028505;28;20499;-63
2023/04/05 08:31:39;;;;;;;17.00;4.37;;;;;;;;;;5028288;28;20037;-64
2023/04/05 08:34:07;;;;;;;3.23;2.60;;;;;;;;;;5031236;28;20025;-64
2023/04/05 08:36:33;;;;;;;3.30;2.80;;;;;;;;;;5033241;28;20029;-63
2023/04/05 08:39:00;;;;;;;4.13;2.57;;;;;;;;;;5033711;28;20528;-63
2023/04/05 08:41:31;;;;;;;3.30;2.27;;;;;;;;;;5033453;28;20558;-63
2023/04/05 08:44:01;;;;;;;3.77;2.43;;;;;;;;;;5033614;28;20026;-63
2023/04/05 08:46:30;;;;;;;2.87;2.37;;;;;;;;;;5009061;28;20498;-64
2023/04/05 08:48:58;;;;;;;2.37;1.80;;;;;;;;;;5008224;28;20038;-63
2023/04/05 08:51:25;;;;;;;3.53;2.63;;;;;;;;;;5008120;28;20022;-64
2023/04/05 08:53:53;;;;;;;4.73;2.27;;;;;;;;;;5008430;28;20420;-63
2023/04/05 08:56:26;;;;;;;5.73;3.53;;;;;;;;;;5012135;28;20030;-65
2023/04/05 08:58:58;;;;;;;6.27;4.10;;;;;;;;;;5013456;28;20040;-63
2023/04/05 09:01:25;;;;;;;5.57;4.43;;;;;;;;;;5013521;28;20057;-63
2023/04/05 09:03:53;;;;;;;4.47;3.10;;;;;;;;;;5013368;28;20076;-64
2023/04/05 09:06:21;;;;;;;4.87;3.13;;;;;;;;;;5012767;28;20040;-63
2023/04/05 09:08:48;;;;;;;4.47;2.80;;;;;;;;;;5008588;28;20034;-65
2023/04/05 09:11:16;;;;;;;5.13;3.57;;;;;;;;;;5008095;28;20068;-63
2023/04/05 09:13:42;;;;;;;4.43;3.33;;;;;;;;;;5008058;28;20137;-63
2023/04/05 09:16:09;;;;;;;6.83;3.53;;;;;;;;;;5007987;28;20124;-64
2023/04/05 09:18:36;;;;;;;5.67;3.30;;;;;;;;;;5011593;28;20022;-63
2023/04/05 09:21:06;;;;;;;4.37;3.10;;;;;;;;;;5013187;28;20026;-63
2023/04/05 09:23:36;;;;;;;5.10;3.93;;;;;;;;;;5013165;28;20030;-63
2023/04/05 09:26:18;;;;;;;12.07;3.30;;;;;;;;;;5013046;28;20037;-63
2023/04/05 09:28:45;;;;;;;5.30;4.07;;;;;;;;;;5012863;28;20029;-63
2023/04/05 09:31:30;;;;;;;3.53;3.03;;;;;;;;;;5008575;28;20033;-64
2023/04/05 09:34:00;;;;;;;3.17;2.53;;;;;;;;;;5007605;28;20030;-63
2023/04/05 09:36:27;;;;;;;4.10;2.57;;;;;;;;;;5019328;28;20041;-63
2023/04/05 09:38:54;;;;;;;5.00;3.60;;;;;;;;;;5010651;28;20306;-63
2023/04/05 09:41:23;;;;;;;3.40;2.40;;;;;;;;;;5012021;28;20067;-63
2023/04/05 09:43:52;;;;;;;7.57;4.20;;;;;;;;;;5012702;28;20112;-63
2023/04/05 09:46:32;;;;;;;4.30;3.40;;;;;;;;;;5012042;28;20033;-63
2023/04/05 09:49:00;;;;;;;4.57;3.63;;;;;;;;;;5012545;28;20030;-64
2023/04/05 09:51:34;;;;;;;4.37;3.53;;;;;;;;;;5012770;28;20034;-63
2023/04/05 09:54:02;;;;;;;5.13;4.17;;;;;;;;;;5007347;28;20049;-63
2023/04/05 09:56:30;;;;;;;4.10;3.33;;;;;;;;;;5008176;28;20017;-63
2023/04/05 09:59:01;;;;;;;6.13;4.40;;;;;;;;;;5007373;28;20368;-63
2023/04/05 10:01:28;;;;;;;3.67;3.17;;;;;;;;;;5007315;28;20482;-63
2023/04/05 10:03:57;;;;;;;4.93;3.57;;;;;;;;;;5012421;28;20025;-63
2023/04/05 10:06:24;;;;;;;8.00;3.87;;;;;;;;;;5012410;28;20081;-63
2023/04/05 10:08:51;;;;;;;5.30;3.90;;;;;;;;;;5012294;28;20045;-63
2023/04/05 10:11:18;;;;;;;8.00;3.97;;;;;;;;;;5012629;28;20057;-63
2023/04/05 10:13:45;;;;;;;5.87;4.30;;;;;;;;;;5011911;28;20022;-63
2023/04/05 10:16:17;;;;;;;5.10;3.67;;;;;;;;;;5007172;28;20042;-63
2023/04/05 10:18:49;;;;;;;7.47;3.67;;;;;;;;;;5007241;28;20025;-64
2023/04/05 10:21:17;;;;;;;13.40;4.57;;;;;;;;;;5007153;28;20028;-63
2023/04/05 10:23:45;;;;;;;2.80;2.33;;;;;;;;;;5007148;28;20057;-63
2023/04/05 10:26:18;;;;;;;5.83;3.80;;;;;;;;;;5011919;28;20034;-63
2023/04/05 10:28:47;;;;;;;4.60;3.53;;;;;;;;;;5012240;28;20117;-63
2023/04/05 10:31:26;;;;;;;4.90;2.93;;;;;;;;;;5012081;28;20034;-63
2023/04/05 10:34:05;;;;;;;4.60;3.13;;;;;;;;;;5012422;28;20088;-63
2023/04/05 10:36:50;;;;;;;7.23;2.97;;;;;;;;;;5011284;28;20479;-63
2023/04/05 10:39:22;;;;;;;8.80;4.53;;;;;;;;;;5006927;28;20025;-63
2023/04/05 10:41:56;;;;;;;6.83;3.53;;;;;;;;;;5006841;28;20508;-64
2023/04/05 10:44:23;;;;;;;2.73;2.30;;;;;;;;;;5006891;28;20018;-63
2023/04/05 10:46:50;;;;;;;4.63;2.77;;;;;;;;;;5027408;28;20029;-64
2023/04/05 10:49:35;;;;;;;5.93;3.70;;;;;;;;;;5031196;28;20029;-63
2023/04/05 10:52:02;;;;;;;5.80;4.32;;;;;;;;;;5031823;28;20025;-62
2023/04/05 10:54:32;;;;;;;9.30;4.13;;;;;;;;;;5031507;28;20357;-63
2023/04/05 10:57:00;;;;;;;11.37;6.13;;;;;;;;;;5033211;28;20018;-64
2023/04/05 10:59:27;;;;;;;8.87;5.30;;;;;;;;;;5033420;28;20025;-62
2023/04/05 11:01:54;;;;;;;6.87;4.40;;;;;;;;;;5029926;28;20399;-64
2023/04/05 11:04:21;;;;;;;6.67;4.83;;;;;;;;;;5029798;28;20029;-64
2023/04/05 11:07:08;;;;;;;5.13;3.97;;;;;;;;;;5030092;28;20388;-64
2023/04/05 11:09:35;;;;;;;5.23;4.17;;;;;;;;;;5031643;28;20041;-64
2023/04/05 11:12:01;;;;;;;9.10;4.67;;;;;;;;;;5035400;28;20428;-64
2023/04/05 11:14:42;;;;;;;4.90;3.83;;;;;;;;;;5034465;28;20400;-64
2023/04/05 11:17:27;;;;;;;39.30;5.57;;;;;;;;;;5035216;28;20029;-64
2023/04/05 11:19:53;;;;;;;;;;;;;;;;;;5035597;28;20029;-64
2023/04/05 11:22:27;;;;;;;10.43;4.63;;;;;;;;;;5031735;28;20031;-63
2023/04/05 11:24:56;;;;;;;7.63;4.47;;;;;;;;;;5029585;28;20485;-63
2023/04/05 11:27:30;;;;;;;4.50;3.43;;;;;;;;;;5029466;28;20267;-64
2023/04/05 11:30:01;;;;;;;4.67;3.80;;;;;;;;;;5029660;28;20029;-62
2023/04/05 11:32:41;;;;;;;6.40;4.53;;;;;;;;;;5032682;28;20484;-62
2023/04/05 11:35:13;;;;;;;6.87;4.30;;;;;;;;;;5034452;28;20082;-64
2023/04/05 11:37:55;;;;;;;8.40;5.10;;;;;;;;;;5034720;28;20013;-64
2023/04/05 11:40:27;;;;;;;14.50;4.80;;;;;;;;;;5034704;28;20021;-64
2023/04/05 11:43:06;;;;;;;7.57;4.37;;;;;;;;;;5034619;28;20029;-64
2023/04/05 11:45:33;;;;;;;6.80;4.00;;;;;;;;;;5029116;28;20485;-62
2023/04/05 11:48:07;;;;;;;7.33;4.73;;;;;;;;;;5029347;28;20429;-64
2023/04/05 11:50:34;;;;;;;5.23;3.60;;;;;;;;;;5029489;28;20562;-64
2023/04/05 11:53:10;;;;;;;7.17;4.90;;;;;;;;;;5029206;28;20101;-65
2023/04/05 11:55:40;;;;;;;4.07;2.80;;;;;;;;;;5032064;28;20433;-63
2023/04/05 11:58:14;;;;;;;13.87;5.17;;;;;;;;;;5034418;28;20022;-62
2023/04/05 12:00:41;;;;;;;6.80;4.53;;;;;;;;;;5032063;28;20508;-65
2023/04/05 12:03:11;;;;;;;9.80;4.77;;;;;;;;;;5014410;28;20022;-64
2023/04/05 12:05:50;;;;;;;8.57;4.93;;;;;;;;;;5014372;28;20469;-64
2023/04/05 12:08:17;;;;;;;12.27;5.13;;;;;;;;;;5008762;28;20604;-64
2023/04/05 12:10:44;;;;;;;23.97;5.87;;;;;;;;;;5009374;28;20032;-64
2023/04/05 12:13:11;;;;;;;8.30;5.63;;;;;;;;;;5008958;28;20037;-64
2023/04/05 12:15:39;;;;;;;6.37;4.63;;;;;;;;;;5009000;28;20753;-64
2023/04/05 12:18:13;;;;;;;5.37;3.97;;;;;;;;;;5014221;28;20097;-64
2023/04/05 12:20:39;;;;;;;6.40;4.50;;;;;;;;;;5014106;28;20025;-64
2023/04/05 12:23:06;;;;;;;13.47;4.40;;;;;;;;;;5013682;28;20022;-64
2023/04/05 12:25:35;;;;;;;5.33;4.17;;;;;;;;;;5014286;28;20045;-64
2023/04/05 12:28:06;;;;;;;5.23;4.17;;;;;;;;;;5013922;28;20097;-63
2023/04/05 12:30:35;;;;;;;6.27;4.13;;;;;;;;;;5008590;28;20021;-63
2023/04/05 12:33:10;;;;;;;19.57;4.67;;;;;;;;;;5028048;28;20056;-64
2023/04/05 12:35:36;;;;;;;4.03;2.88;;;;;;;;;;5028298;28;20471;-64
2023/04/05 12:38:09;;;;;;;7.63;3.33;;;;;;;;;;5028158;28;20026;-65
2023/04/05 12:40:36;;;;;;;8.93;4.57;;;;;;;;;;5033442;28;20025;-64
2023/04/05 12:43:18;;;;;;;6.33;4.20;;;;;;;;;;5033068;28;20504;-63
2023/04/05 12:45:45;;;;;;;6.60;4.30;;;;;;;;;;5033587;28;20075;-63
2023/04/05 12:48:20;;;;;;;5.37;4.07;;;;;;;;;;5028163;28;20469;-64
2023/04/05 12:50:50;;;;;;;7.30;4.47;;;;;;;;;;5012564;28;20548;-64
2023/04/05 12:53:19;;;;;;;5.43;4.17;;;;;;;;;;5008171;28;20037;-64
2023/04/05 12:55:53;;;;;;;7.80;5.07;;;;;;;;;;5008436;28;20429;-64
2023/04/05 12:58:20;;;;;;;6.20;4.40;;;;;;;;;;5008466;28;20105;-64
2023/04/05 13:00:47;;;;;;;7.93;4.87;;;;;;;;;;5008519;28;20263;-64
2023/04/05 13:03:19;;;;;;;6.00;3.40;;;;;;;;;;5013374;28;20049;-63
2023/04/05 13:05:49;;;;;;;8.47;5.13;;;;;;;;;;5013340;28;20044;-63
2023/04/05 13:08:19;;;;;;;9.27;6.03;;;;;;;;;;5016868;28;20069;-63
2023/04/05 13:10:46;;;;;;;13.90;6.30;;;;;;;;;;5032939;28;20036;-63
2023/04/05 13:13:14;;;;;;;14.00;7.67;;;;;;;;;;5031527;28;20030;-64
2023/04/05 13:15:41;;;;;;;10.70;7.13;;;;;;;;;;5027277;28;20025;-64
2023/04/05 13:18:08;;;;;;;13.67;9.10;;;;;;;;;;5027269;28;20032;-64
2023/04/05 13:20:34;;;;;;;8.93;6.03;;;;;;;;;;5015508;28;20477;-64
2023/04/05 13:23:01;;;;;;;9.03;6.20;;;;;;;;;;5008132;28;20104;-64
2023/04/05 13:25:28;;;;;;;7.13;5.60;;;;;;;;;;5013008;28;20025;-65
2023/04/05 13:27:59;;;;;;;6.60;5.20;;;;;;;;;;5011486;28;20165;-66
2023/04/05 13:30:26;;;;;;;12.27;6.03;;;;;;;;;;5028019;28;20032;-65
2023/04/05 13:32:53;;;;;;;10.43;6.07;;;;;;;;;;5023919;28;20033;-62
2023/04/05 13:35:19;;;;;;;8.50;6.07;;;;;;;;;;5021823;28;20034;-65
2023/04/05 13:37:46;;;;;;;9.80;5.60;;;;;;;;;;5013743;28;20050;-64
2023/04/05 13:40:13;;;;;;;9.63;6.13;;;;;;;;;;5008099;28;20108;-64
2023/04/05 13:42:39;;;;;;;23.47;9.13;;;;;;;;;;5007872;28;20041;-64
2023/04/05 13:45:06;;;;;;;11.73;6.13;;;;;;;;;;5011544;28;20476;-64
2023/04/05 13:47:33;;;;;;;10.93;7.23;;;;;;;;;;5032482;28;20026;-64
2023/04/05 13:50:01;;;;;;;11.33;5.03;;;;;;;;;;5032117;28;20018;-64
2023/04/05 13:52:28;;;;;;;13.43;6.23;;;;;;;;;;5032147;28;20025;-63
2023/04/05 13:54:55;;;;;;;11.10;6.63;;;;;;;;;;5032464;28;20461;-63
2023/04/05 13:57:22;;;;;;;13.00;6.50;;;;;;;;;;5032170;28;20140;-63
2023/04/05 13:59:48;;;;;;;14.20;9.50;;;;;;;;;;5027388;28;20057;-64
2023/04/05 14:02:18;;;;;;;13.43;7.53;;;;;;;;;;5022714;28;20025;-65
2023/04/05 14:04:45;;;;;;;15.33;7.37;;;;;;;;;;5010303;28;20036;-65
2023/04/05 14:07:12;;;;;;;18.00;5.47;;;;;;;;;;5023987;28;20022;-63
2023/04/05 14:09:39;;;;;;;12.27;7.63;;;;;;;;;;5012021;28;20038;-63
2023/04/05 14:12:06;;;;;;;18.50;7.23;;;;;;;;;;5012727;28;20034;-62
2023/04/05 14:14:32;;;;;;;9.47;6.53;;;;;;;;;;5012458;28;20033;-63
2023/04/05 14:17:00;;;;;;;10.23;7.20;;;;;;;;;;5024590;28;20026;-62
2023/04/05 14:19:26;;;;;;;11.40;6.57;;;;;;;;;;5032131;28;20025;-64
2023/04/05 14:21:53;;;;;;;10.83;5.03;;;;;;;;;;5027088;28;20384;-65
2023/04/05 14:24:20;;;;;;;6.93;5.17;;;;;;;;;;5007441;28;20041;-63
2023/04/05 14:26:48;;;;;;;10.67;6.17;;;;;;;;;;5007215;28;20056;-65
2023/04/05 14:29:18;;;;;;;8.57;5.50;;;;;;;;;;5007421;28;20089;-63
2023/04/05 14:31:45;;;;;;;6.53;5.00;;;;;;;;;;5013749;28;20088;-63
2023/04/05 14:34:13;;;;;;;7.00;4.90;;;;;;;;;;5015835;28;20064;-65
2023/04/05 14:36:39;;;;;;;13.20;5.17;;;;;;;;;;5016261;28;20381;-64
2023/04/05 14:39:06;;;;;;;7.10;4.90;;;;;;;;;;5016141;28;20053;-65
2023/04/05 14:41:33;;;;;;;6.20;5.10;;;;;;;;;;5015588;28;20516;-65
2023/04/05 14:44:00;;;;;;;10.57;5.77;;;;;;;;;;5027331;28;20041;-63
2023/04/05 14:46:27;;;;;;;25.70;6.70;;;;;;;;;;5030407;28;20575;-64
2023/04/05 14:48:54;;;;;;;24.20;9.03;;;;;;;;;;5030159;28;20029;-64